sensor_id;sensor_type;location;lat;lon;timestamp;temperature;humidity
11188;DHT22;5650;52.700;7.306;2023-04-24T00:00:32;10.70;99.90
11188;DHT22;5650;52.700;7.306;2023-04-24T00:03:05;10.70;99.90
11188;DHT22;5650;52.700;7.306;2023-04-24T00:05:33;10.60;99.90
11188;DHT22;5650;52.700;7.306;2023-04-24T00:08:02;10.60;99.90
11188;DHT22;5650;52.700;7.306;2023-04-24T00:10:31;10.60;99.90
11188;DHT22;5650;52.700;7.306;2023-04-24T00:12:58;10.60;99.90
11188;DHT22;5650;52.700;7.306;2023-04-24T00:15:31;10.60;99.90
11188;DHT22;5650;52.700;7.306;2023-04-24T00:18:01;10.60;99.90
11188;DHT22;5650;52.700;7.306;2023-04-24T00:20:32;10.50;99.90
11188;DHT22;5650;52.700;7.306;2023-04-24T00:23:01;10.50;99.90
11188;DHT22;5650;52.700;7.306;2023-04-24T00:25:35;10.50;99.90
11188;DHT22;5650;52.700;7.306;2023-04-24T00:28:05;10.50;99.90
11188;DHT22;5650;52.700;7.306;2023-04-24T00:30:32;10.50;99.90
11188;DHT22;5650;52.700;7.306;2023-04-24T00:33:00;10.40;99.90
11188;DHT22;5650;52.700;7.306;2023-04-24T00:35:36;10.40;99.90
11188;DHT22;5650;52.700;7.306;2023-04-24T00:38:16;10.40;99.90
11188;DHT22;5650;52.700;7.306;2023-04-24T00:40:47;10.40;99.90
11188;DHT22;5650;52.700;7.306;2023-04-24T00:43:15;10.40;99.90
11188;DHT22;5650;52.700;7.306;2023-04-24T00:45:46;10.40;99.90
11188;DHT22;5650;52.700;7.306;2023-04-24T00:48:14;10.40;99.90
11188;DHT22;5650;52.700;7.306;2023-04-24T00:50:42;10.40;99.90
11188;DHT22;5650;52.700;7.306;2023-04-24T00:53:09;10.30;99.90
11188;DHT22;5650;52.700;7.306;2023-04-24T00:55:39;10.40;99.90
11188;DHT22;5650;52.700;7.306;2023-04-24T00:58:10;10.30;99.90
11188;DHT22;5650;52.700;7.306;2023-04-24T01:00:37;10.30;99.90
11188;DHT22;5650;52.700;7.306;2023-04-24T01:03:06;10.30;99.90
11188;DHT22;5650;52.700;7.306;2023-04-24T01:05:39;10.30;99.90
11188;DHT22;5650;52.700;7.306;2023-04-24T01:08:08;10.30;99.90
11188;DHT22;5650;52.700;7.306;2023-04-24T01:10:44;10.30;99.90
11188;DHT22;5650;52.700;7.306;2023-04-24T01:13:13;10.30;99.90
11188;DHT22;5650;52.700;7.306;2023-04-24T01:15:43;10.30;99.90
11188;DHT22;5650;52.700;7.306;2023-04-24T01:18:10;10.20;99.90
11188;DHT22;5650;52.700;7.306;2023-04-24T01:20:42;10.20;99.90
11188;DHT22;5650;52.700;7.306;2023-04-24T01:23:14;10.20;99.90
11188;DHT22;5650;52.700;7.306;2023-04-24T01:25:42;10.20;99.90
11188;DHT22;5650;52.700;7.306;2023-04-24T01:28:09;10.30;99.90
11188;DHT22;5650;52.700;7.306;2023-04-24T01:30:42;10.30;99.90
11188;DHT22;5650;52.700;7.306;2023-04-24T01:33:10;10.30;99.90
11188;DHT22;5650;52.700;7.306;2023-04-24T01:35:40;10.30;99.90
11188;DHT22;5650;52.700;7.306;2023-04-24T01:38:10;10.30;99.90
11188;DHT22;5650;52.700;7.306;2023-04-24T01:40:42;10.30;99.90
11188;DHT22;5650;52.700;7.306;2023-04-24T01:43:14;10.20;99.90
11188;DHT22;5650;52.700;7.306;2023-04-24T01:45:47;10.30;99.90
11188;DHT22;5650;52.700;7.306;2023-04-24T01:48:15;10.30;99.90
11188;DHT22;5650;52.700;7.306;2023-04-24T01:50:42;10.30;99.90
11188;DHT22;5650;52.700;7.306;2023-04-24T01:53:09;10.30;99.90
11188;DHT22;5650;52.700;7.306;2023-04-24T01:55:44;10.30;99.90
11188;DHT22;5650;52.700;7.306;2023-04-24T01:58:12;10.40;99.90
11188;DHT22;5650;52.700;7.306;2023-04-24T02:00:42;10.40;99.90
11188;DHT22;5650;52.700;7.306;2023-04-24T02:03:14;10.40;99.90
11188;DHT22;5650;52.700;7.306;2023-04-24T02:05:43;10.40;99.90
11188;DHT22;5650;52.700;7.306;2023-04-24T02:08:11;10.40;99.90
11188;DHT22;5650;52.700;7.306;2023-04-24T02:10:40;10.50;99.90
11188;DHT22;5650;52.700;7.306;2023-04-24T02:13:12;10.50;99.90
11188;DHT22;5650;52.700;7.306;2023-04-24T02:15:42;10.50;99.90
11188;DHT22;5650;52.700;7.306;2023-04-24T02:18:09;10.50;99.90
11188;DHT22;5650;52.700;7.306;2023-04-24T02:20:38;10.50;99.90
11188;DHT22;5650;52.700;7.306;2023-04-24T02:23:07;10.60;99.90
11188;DHT22;5650;52.700;7.306;2023-04-24T02:25:40;10.60;99.90
11188;DHT22;5650;52.700;7.306;2023-04-24T02:28:07;10.60;99.90
11188;DHT22;5650;52.700;7.306;2023-04-24T02:30:36;10.60;99.90
11188;DHT22;5650;52.700;7.306;2023-04-24T02:33:15;10.60;99.90
11188;DHT22;5650;52.700;7.306;2023-04-24T02:35:43;10.60;99.90
11188;DHT22;5650;52.700;7.306;2023-04-24T02:38:10;10.60;99.90
11188;DHT22;5650;52.700;7.306;2023-04-24T02:40:49;10.70;99.90
11188;DHT22;5650;52.700;7.306;2023-04-24T02:43:17;10.70;99.90
11188;DHT22;5650;52.700;7.306;2023-04-24T02:45:48;10.60;99.90
11188;DHT22;5650;52.700;7.306;2023-04-24T02:48:15;10.60;99.90
11188;DHT22;5650;52.700;7.306;2023-04-24T02:50:45;10.70;99.90
11188;DHT22;5650;52.700;7.306;2023-04-24T02:53:12;10.70;99.90
11188;DHT22;5650;52.700;7.306;2023-04-24T02:55:41;10.70;99.90
11188;DHT22;5650;52.700;7.306;2023-04-24T02:58:11;10.70;99.90
11188;DHT22;5650;52.700;7.306;2023-04-24T03:00:39;10.70;99.90
11188;DHT22;5650;52.700;7.306;2023-04-24T03:03:10;10.70;99.90
11188;DHT22;5650;52.700;7.306;2023-04-24T03:05:38;10.70;99.90
11188;DHT22;5650;52.700;7.306;2023-04-24T03:08:08;10.70;99.90
11188;DHT22;5650;52.700;7.306;2023-04-24T03:10:44;10.70;99.90
11188;DHT22;5650;52.700;7.306;2023-04-24T03:13:15;10.70;99.90
11188;DHT22;5650;52.700;7.306;2023-04-24T03:15:42;10.60;99.90
11188;DHT22;5650;52.700;7.306;2023-04-24T03:18:13;10.60;99.90
11188;DHT22;5650;52.700;7.306;2023-04-24T03:20:40;10.60;99.90
11188;DHT22;5650;52.700;7.306;2023-04-24T03:23:20;10.60;99.90
11188;DHT22;5650;52.700;7.306;2023-04-24T03:25:47;10.60;99.90
11188;DHT22;5650;52.700;7.306;2023-04-24T03:28:14;10.70;99.90
11188;DHT22;5650;52.700;7.306;2023-04-24T03:30:44;10.60;99.90
11188;DHT22;5650;52.700;7.306;2023-04-24T03:33:21;10.60;99.90
11188;DHT22;5650;52.700;7.306;2023-04-24T03:35:54;10.60;99.90
11188;DHT22;5650;52.700;7.306;2023-04-24T03:38:24;10.60;99.90
11188;DHT22;5650;52.700;7.306;2023-04-24T03:41:01;10.60;99.90
11188;DHT22;5650;52.700;7.306;2023-04-24T03:43:29;10.60;99.90
11188;DHT22;5650;52.700;7.306;2023-04-24T03:45:58;10.60;99.90
11188;DHT22;5650;52.700;7.306;2023-04-24T03:48:33;10.60;99.90
11188;DHT22;5650;52.700;7.306;2023-04-24T03:51:00;10.60;99.90
11188;DHT22;5650;52.700;7.306;2023-04-24T03:53:33;10.50;99.90
11188;DHT22;5650;52.700;7.306;2023-04-24T03:56:06;10.50;99.90
11188;DHT22;5650;52.700;7.306;2023-04-24T03:58:33;10.50;99.90
11188;DHT22;5650;52.700;7.306;2023-04-24T04:01:06;10.50;99.90
11188;DHT22;5650;52.700;7.306;2023-04-24T04:03:43;10.50;99.90
11188;DHT22;5650;52.700;7.306;2023-04-24T04:06:14;10.60;99.90
11188;DHT22;5650;52.700;7.306;2023-04-24T04:08:41;10.50;99.90
11188;DHT22;5650;52.700;7.306;2023-04-24T04:11:08;10.60;99.90
11188;DHT22;5650;52.700;7.306;2023-04-24T04:13:38;10.60;99.90
11188;DHT22;5650;52.700;7.306;2023-04-24T04:16:05;10.50;99.90
11188;DHT22;5650;52.700;7.306;2023-04-24T04:18:36;10.60;99.90
11188;DHT22;5650;52.700;7.306;2023-04-24T04:21:08;10.60;99.90
11188;DHT22;5650;52.700;7.306;2023-04-24T04:23:35;10.60;99.90
11188;DHT22;5650;52.700;7.306;2023-04-24T04:26:02;10.60;99.90
11188;DHT22;5650;52.700;7.306;2023-04-24T04:28:42;10.50;99.90
11188;DHT22;5650;52.700;7.306;2023-04-24T04:31:10;10.60;99.90
11188;DHT22;5650;52.700;7.306;2023-04-24T04:33:40;10.60;99.90
11188;DHT22;5650;52.700;7.306;2023-04-24T04:36:08;10.60;99.90
11188;DHT22;5650;52.700;7.306;2023-04-24T04:38:48;10.50;99.90
11188;DHT22;5650;52.700;7.306;2023-04-24T04:41:15;10.60;99.90
11188;DHT22;5650;52.700;7.306;2023-04-24T04:43:46;10.60;99.90
11188;DHT22;5650;52.700;7.306;2023-04-24T04:46:14;10.50;99.90
11188;DHT22;5650;52.700;7.306;2023-04-24T04:48:44;10.50;99.90
11188;DHT22;5650;52.700;7.306;2023-04-24T04:51:13;10.50;99.90
11188;DHT22;5650;52.700;7.306;2023-04-24T04:53:40;10.50;99.90
11188;DHT22;5650;52.700;7.306;2023-04-24T04:56:07;10.50;99.90
11188;DHT22;5650;52.700;7.306;2023-04-24T04:58:35;10.50;99.90
11188;DHT22;5650;52.700;7.306;2023-04-24T05:01:05;10.40;99.90
11188;DHT22;5650;52.700;7.306;2023-04-24T05:03:35;10.40;99.90
11188;DHT22;5650;52.700;7.306;2023-04-24T05:06:12;10.40;99.90
11188;DHT22;5650;52.700;7.306;2023-04-24T05:08:45;10.40;99.90
11188;DHT22;5650;52.700;7.306;2023-04-24T05:11:14;10.40;99.90
11188;DHT22;5650;52.700;7.306;2023-04-24T05:13:41;10.40;99.90
11188;DHT22;5650;52.700;7.306;2023-04-24T05:16:11;10.40;99.90
11188;DHT22;5650;52.700;7.306;2023-04-24T05:18:41;10.40;99.90
11188;DHT22;5650;52.700;7.306;2023-04-24T05:21:08;10.40;99.90
11188;DHT22;5650;52.700;7.306;2023-04-24T05:23:36;10.40;99.90
11188;DHT22;5650;52.700;7.306;2023-04-24T05:26:04;10.50;99.90
11188;DHT22;5650;52.700;7.306;2023-04-24T05:28:34;10.50;99.90
11188;DHT22;5650;52.700;7.306;2023-04-24T05:31:02;10.50;99.90
11188;DHT22;5650;52.700;7.306;2023-04-24T05:33:35;10.50;99.90
11188;DHT22;5650;52.700;7.306;2023-04-24T05:36:03;10.50;99.90
11188;DHT22;5650;52.700;7.306;2023-04-24T05:38:38;10.50;99.90
11188;DHT22;5650;52.700;7.306;2023-04-24T05:41:05;10.60;99.90
11188;DHT22;5650;52.700;7.306;2023-04-24T05:43:44;10.60;99.90
11188;DHT22;5650;52.700;7.306;2023-04-24T05:46:11;10.60;99.90
11188;DHT22;5650;52.700;7.306;2023-04-24T05:48:41;10.70;99.90
11188;DHT22;5650;52.700;7.306;2023-04-24T05:51:12;10.70;99.90
11188;DHT22;5650;52.700;7.306;2023-04-24T05:53:43;10.70;99.90
11188;DHT22;5650;52.700;7.306;2023-04-24T05:56:13;10.80;99.90
11188;DHT22;5650;52.700;7.306;2023-04-24T05:58:41;10.80;99.90
11188;DHT22;5650;52.700;7.306;2023-04-24T06:01:08;10.80;99.90
11188;DHT22;5650;52.700;7.306;2023-04-24T06:03:42;10.80;99.90
11188;DHT22;5650;52.700;7.306;2023-04-24T06:06:15;10.80;99.90
11188;DHT22;5650;52.700;7.306;2023-04-24T06:08:44;10.70;99.90
11188;DHT22;5650;52.700;7.306;2023-04-24T06:11:11;10.80;99.90
11188;DHT22;5650;52.700;7.306;2023-04-24T06:13:41;10.70;99.90
11188;DHT22;5650;52.700;7.306;2023-04-24T06:16:11;10.70;99.90
11188;DHT22;5650;52.700;7.306;2023-04-24T06:18:38;10.70;99.90
11188;DHT22;5650;52.700;7.306;2023-04-24T06:21:06;10.70;99.90
11188;DHT22;5650;52.700;7.306;2023-04-24T06:23:33;10.80;99.90
11188;DHT22;5650;52.700;7.306;2023-04-24T06:26:08;10.80;99.90
11188;DHT22;5650;52.700;7.306;2023-04-24T06:28:35;10.80;99.90
11188;DHT22;5650;52.700;7.306;2023-04-24T06:31:08;10.90;99.90
11188;DHT22;5650;52.700;7.306;2023-04-24T06:33:35;10.90;99.90
11188;DHT22;5650;52.700;7.306;2023-04-24T06:36:06;11.00;99.90
11188;DHT22;5650;52.700;7.306;2023-04-24T06:38:33;11.00;99.90
11188;DHT22;5650;52.700;7.306;2023-04-24T06:41:08;11.10;99.90
11188;DHT22;5650;52.700;7.306;2023-04-24T06:43:35;11.10;99.90
11188;DHT22;5650;52.700;7.306;2023-04-24T06:46:05;11.20;99.90
11188;DHT22;5650;52.700;7.306;2023-04-24T06:48:41;11.30;99.90
11188;DHT22;5650;52.700;7.306;2023-04-24T06:51:08;11.30;99.90
11188;DHT22;5650;52.700;7.306;2023-04-24T06:53:35;11.60;99.90
11188;DHT22;5650;52.700;7.306;2023-04-24T06:56:03;11.80;99.90
11188;DHT22;5650;52.700;7.306;2023-04-24T06:58:32;12.00;99.90
11188;DHT22;5650;52.700;7.306;2023-04-24T07:00:59;12.30;99.90
11188;DHT22;5650;52.700;7.306;2023-04-24T07:03:26;12.50;99.90
11188;DHT22;5650;52.700;7.306;2023-04-24T07:05:56;12.60;99.90
11188;DHT22;5650;52.700;7.306;2023-04-24T07:08:24;12.60;99.90
11188;DHT22;5650;52.700;7.306;2023-04-24T07:10:51;12.50;99.90
11188;DHT22;5650;52.700;7.306;2023-04-24T07:13:27;12.40;99.90
11188;DHT22;5650;52.700;7.306;2023-04-24T07:15:56;12.40;99.90
11188;DHT22;5650;52.700;7.306;2023-04-24T07:18:23;12.20;99.90
11188;DHT22;5650;52.700;7.306;2023-04-24T07:20:50;12.10;99.90
11188;DHT22;5650;52.700;7.306;2023-04-24T07:23:19;12.00;99.90
11188;DHT22;5650;52.700;7.306;2023-04-24T07:25:46;11.90;99.90
11188;DHT22;5650;52.700;7.306;2023-04-24T07:28:14;11.80;99.90
11188;DHT22;5650;52.700;7.306;2023-04-24T07:30:46;11.70;99.90
11188;DHT22;5650;52.700;7.306;2023-04-24T07:33:14;11.70;99.90
11188;DHT22;5650;52.700;7.306;2023-04-24T07:35:42;11.60;99.90
11188;DHT22;5650;52.700;7.306;2023-04-24T07:38:11;11.50;99.90
11188;DHT22;5650;52.700;7.306;2023-04-24T07:40:42;11.50;99.90
11188;DHT22;5650;52.700;7.306;2023-04-24T07:43:12;11.40;99.90
11188;DHT22;5650;52.700;7.306;2023-04-24T07:45:43;11.40;99.90
11188;DHT22;5650;52.700;7.306;2023-04-24T07:48:15;11.40;99.90
11188;DHT22;5650;52.700;7.306;2023-04-24T07:50:43;11.30;99.90
11188;DHT22;5650;52.700;7.306;2023-04-24T07:53:10;11.30;99.90
11188;DHT22;5650;52.700;7.306;2023-04-24T07:55:37;11.30;99.90
11188;DHT22;5650;52.700;7.306;2023-04-24T07:58:05;11.30;99.90
11188;DHT22;5650;52.700;7.306;2023-04-24T08:00:35;11.30;99.90
11188;DHT22;5650;52.700;7.306;2023-04-24T08:03:02;11.30;99.90
11188;DHT22;5650;52.700;7.306;2023-04-24T08:05:31;11.40;99.90
11188;DHT22;5650;52.700;7.306;2023-04-24T08:08:10;11.30;99.90
11188;DHT22;5650;52.700;7.306;2023-04-24T08:10:38;11.40;99.90
11188;DHT22;5650;52.700;7.306;2023-04-24T08:13:05;11.30;99.90
11188;DHT22;5650;52.700;7.306;2023-04-24T08:15:32;11.30;99.90
11188;DHT22;5650;52.700;7.306;2023-04-24T08:18:02;11.20;99.90
11188;DHT22;5650;52.700;7.306;2023-04-24T08:20:31;11.20;99.90
11188;DHT22;5650;52.700;7.306;2023-04-24T08:23:01;11.20;99.90
11188;DHT22;5650;52.700;7.306;2023-04-24T08:25:28;11.10;99.90
11188;DHT22;5650;52.700;7.306;2023-04-24T08:27:55;11.10;99.90
11188;DHT22;5650;52.700;7.306;2023-04-24T08:30:22;11.10;99.90
11188;DHT22;5650;52.700;7.306;2023-04-24T08:32:55;11.10;99.90
11188;DHT22;5650;52.700;7.306;2023-04-24T08:35:25;11.10;99.90
11188;DHT22;5650;52.700;7.306;2023-04-24T08:37:53;11.00;99.90
11188;DHT22;5650;52.700;7.306;2023-04-24T08:40:28;11.00;99.90
11188;DHT22;5650;52.700;7.306;2023-04-24T08:42:59;10.90;99.90
11188;DHT22;5650;52.700;7.306;2023-04-24T08:45:29;10.90;99.90
11188;DHT22;5650;52.700;7.306;2023-04-24T08:47:58;10.80;99.90
11188;DHT22;5650;52.700;7.306;2023-04-24T08:50:34;10.80;99.90
11188;DHT22;5650;52.700;7.306;2023-04-24T08:53:02;10.80;99.90
11188;DHT22;5650;52.700;7.306;2023-04-24T08:55:33;10.80;99.90
11188;DHT22;5650;52.700;7.306;2023-04-24T08:58:07;10.80;99.90
11188;DHT22;5650;52.700;7.306;2023-04-24T09:00:34;10.70;99.90
11188;DHT22;5650;52.700;7.306;2023-04-24T09:03:02;10.70;99.90
11188;DHT22;5650;52.700;7.306;2023-04-24T09:05:34;10.70;99.90
11188;DHT22;5650;52.700;7.306;2023-04-24T09:08:05;10.70;99.90
11188;DHT22;5650;52.700;7.306;2023-04-24T09:10:35;10.60;99.90
11188;DHT22;5650;52.700;7.306;2023-04-24T09:13:02;10.60;99.90
11188;DHT22;5650;52.700;7.306;2023-04-24T09:15:29;10.60;99.90
11188;DHT22;5650;52.700;7.306;2023-04-24T09:17:57;10.60;99.90
11188;DHT22;5650;52.700;7.306;2023-04-24T09:20:33;10.70;99.90
11188;DHT22;5650;52.700;7.306;2023-04-24T09:23:17;10.70;99.90
11188;DHT22;5650;52.700;7.306;2023-04-24T09:25:54;10.70;99.90
11188;DHT22;5650;52.700;7.306;2023-04-24T09:28:30;10.80;99.90
11188;DHT22;5650;52.700;7.306;2023-04-24T09:31:11;10.80;99.90
11188;DHT22;5650;52.700;7.306;2023-04-24T09:33:42;10.80;99.90
11188;DHT22;5650;52.700;7.306;2023-04-24T09:36:27;10.80;99.90
11188;DHT22;5650;52.700;7.306;2023-04-24T09:38:59;10.80;99.90
11188;DHT22;5650;52.700;7.306;2023-04-24T09:41:27;10.80;99.90
11188;DHT22;5650;52.700;7.306;2023-04-24T09:44:10;10.70;99.90
11188;DHT22;5650;52.700;7.306;2023-04-24T09:46:50;10.70;99.90
11188;DHT22;5650;52.700;7.306;2023-04-24T09:49:22;10.60;99.90
11188;DHT22;5650;52.700;7.306;2023-04-24T09:52:04;10.60;99.90
11188;DHT22;5650;52.700;7.306;2023-04-24T09:54:33;10.60;99.90
11188;DHT22;5650;52.700;7.306;2023-04-24T09:57:08;10.60;99.90
11188;DHT22;5650;52.700;7.306;2023-04-24T09:59:43;10.60;99.90
11188;DHT22;5650;52.700;7.306;2023-04-24T10:02:19;10.60;99.90
11188;DHT22;5650;52.700;7.306;2023-04-24T10:04:54;10.60;99.90
11188;DHT22;5650;52.700;7.306;2023-04-24T10:07:26;10.50;99.90
11188;DHT22;5650;52.700;7.306;2023-04-24T10:09:57;10.50;99.90
11188;DHT22;5650;52.700;7.306;2023-04-24T10:12:27;10.40;99.90
11188;DHT22;5650;52.700;7.306;2023-04-24T10:15:02;10.40;99.90
11188;DHT22;5650;52.700;7.306;2023-04-24T10:17:34;10.40;99.90
11188;DHT22;5650;52.700;7.306;2023-04-24T10:20:03;10.40;99.90
11188;DHT22;5650;52.700;7.306;2023-04-24T10:22:33;10.40;99.90
11188;DHT22;5650;52.700;7.306;2023-04-24T10:25:03;10.30;99.90
11188;DHT22;5650;52.700;7.306;2023-04-24T10:27:43;10.30;99.90
11188;DHT22;5650;52.700;7.306;2023-04-24T10:30:15;10.30;99.90
11188;DHT22;5650;52.700;7.306;2023-04-24T10:32:45;10.20;99.90
11188;DHT22;5650;52.700;7.306;2023-04-24T10:35:14;10.10;99.90
11188;DHT22;5650;52.700;7.306;2023-04-24T10:37:46;10.00;99.90
11188;DHT22;5650;52.700;7.306;2023-04-24T10:40:18;10.00;99.90
11188;DHT22;5650;52.700;7.306;2023-04-24T10:42:47;10.00;99.90
11188;DHT22;5650;52.700;7.306;2023-04-24T10:45:18;10.10;99.90
11188;DHT22;5650;52.700;7.306;2023-04-24T10:48:03;10.20;99.90
11188;DHT22;5650;52.700;7.306;2023-04-24T10:50:43;10.30;99.90
11188;DHT22;5650;52.700;7.306;2023-04-24T10:53:16;10.30;99.90
11188;DHT22;5650;52.700;7.306;2023-04-24T10:55:51;10.30;99.90
11188;DHT22;5650;52.700;7.306;2023-04-24T10:58:22;10.40;99.90
11188;DHT22;5650;52.700;7.306;2023-04-24T11:00:59;10.40;99.90
11188;DHT22;5650;52.700;7.306;2023-04-24T11:03:28;10.50;99.90
11188;DHT22;5650;52.700;7.306;2023-04-24T11:05:57;10.60;99.90
11188;DHT22;5650;52.700;7.306;2023-04-24T11:08:37;10.50;99.90
11188;DHT22;5650;52.700;7.306;2023-04-24T11:11:16;10.50;99.90
11188;DHT22;5650;52.700;7.306;2023-04-24T11:14:07;10.50;99.90
11188;DHT22;5650;52.700;7.306;2023-04-24T11:16:38;10.50;99.90
11188;DHT22;5650;52.700;7.306;2023-04-24T11:19:09;10.50;99.90
11188;DHT22;5650;52.700;7.306;2023-04-24T11:21:41;10.40;99.90
11188;DHT22;5650;52.700;7.306;2023-04-24T11:24:29;10.40;99.90
11188;DHT22;5650;52.700;7.306;2023-04-24T11:26:59;10.40;99.90
11188;DHT22;5650;52.700;7.306;2023-04-24T11:29:41;10.40;99.90
11188;DHT22;5650;52.700;7.306;2023-04-24T11:32:34;10.50;99.90
11188;DHT22;5650;52.700;7.306;2023-04-24T11:35:03;10.50;99.90
11188;DHT22;5650;52.700;7.306;2023-04-24T11:37:44;10.50;99.90
11188;DHT22;5650;52.700;7.306;2023-04-24T11:40:13;10.60;99.90
11188;DHT22;5650;52.700;7.306;2023-04-24T11:42:44;10.50;99.90
11188;DHT22;5650;52.700;7.306;2023-04-24T11:45:20;10.50;99.90
11188;DHT22;5650;52.700;7.306;2023-04-24T11:47:51;10.50;99.90
11188;DHT22;5650;52.700;7.306;2023-04-24T11:50:21;10.40;99.90
11188;DHT22;5650;52.700;7.306;2023-04-24T11:52:49;10.40;99.90
11188;DHT22;5650;52.700;7.306;2023-04-24T11:55:27;10.40;99.90
11188;DHT22;5650;52.700;7.306;2023-04-24T11:58:02;10.30;99.90
11188;DHT22;5650;52.700;7.306;2023-04-24T12:00:31;10.40;99.90
11188;DHT22;5650;52.700;7.306;2023-04-24T12:03:07;10.40;99.90
11188;DHT22;5650;52.700;7.306;2023-04-24T12:05:34;10.40;99.90
11188;DHT22;5650;52.700;7.306;2023-04-24T12:08:05;10.40;99.90
11188;DHT22;5650;52.700;7.306;2023-04-24T12:10:35;10.50;99.90
11188;DHT22;5650;52.700;7.306;2023-04-24T12:13:04;10.50;99.90
11188;DHT22;5650;52.700;7.306;2023-04-24T12:15:31;10.50;99.90
11188;DHT22;5650;52.700;7.306;2023-04-24T12:18:05;10.50;99.90
11188;DHT22;5650;52.700;7.306;2023-04-24T12:20:33;10.40;99.90
11188;DHT22;5650;52.700;7.306;2023-04-24T12:23:01;10.40;99.90
11188;DHT22;5650;52.700;7.306;2023-04-24T12:25:39;10.40;99.90
11188;DHT22;5650;52.700;7.306;2023-04-24T12:28:11;10.40;99.90
11188;DHT22;5650;52.700;7.306;2023-04-24T12:30:42;10.40;99.90
11188;DHT22;5650;52.700;7.306;2023-04-24T12:33:18;10.50;99.90
11188;DHT22;5650;52.700;7.306;2023-04-24T12:35:45;10.50;99.90
11188;DHT22;5650;52.700;7.306;2023-04-24T12:38:16;10.60;99.90
11188;DHT22;5650;52.700;7.306;2023-04-24T12:40:44;10.70;99.90
11188;DHT22;5650;52.700;7.306;2023-04-24T12:43:16;10.80;99.90
11188;DHT22;5650;52.700;7.306;2023-04-24T12:45:49;10.90;99.90
11188;DHT22;5650;52.700;7.306;2023-04-24T12:48:17;11.00;99.90
11188;DHT22;5650;52.700;7.306;2023-04-24T12:50:45;11.10;99.90
11188;DHT22;5650;52.700;7.306;2023-04-24T12:53:20;11.20;99.90
11188;DHT22;5650;52.700;7.306;2023-04-24T12:56:06;11.30;99.90
11188;DHT22;5650;52.700;7.306;2023-04-24T12:58:35;11.40;99.90
11188;DHT22;5650;52.700;7.306;2023-04-24T13:01:09;11.40;99.90
11188;DHT22;5650;52.700;7.306;2023-04-24T13:03:41;11.50;99.90
11188;DHT22;5650;52.700;7.306;2023-04-24T13:06:12;11.40;99.90
11188;DHT22;5650;52.700;7.306;2023-04-24T13:08:42;11.30;99.90
11188;DHT22;5650;52.700;7.306;2023-04-24T13:11:13;11.30;99.90
11188;DHT22;5650;52.700;7.306;2023-04-24T13:13:44;11.20;99.90
11188;DHT22;5650;52.700;7.306;2023-04-24T13:16:11;11.10;99.90
11188;DHT22;5650;52.700;7.306;2023-04-24T13:18:38;11.10;99.90
11188;DHT22;5650;52.700;7.306;2023-04-24T13:21:06;11.00;99.90
11188;DHT22;5650;52.700;7.306;2023-04-24T13:23:33;11.00;99.90
11188;DHT22;5650;52.700;7.306;2023-04-24T13:26:01;10.90;99.90
11188;DHT22;5650;52.700;7.306;2023-04-24T13:28:28;10.90;99.90
11188;DHT22;5650;52.700;7.306;2023-04-24T13:30:57;10.90;99.90
11188;DHT22;5650;52.700;7.306;2023-04-24T13:33:25;10.80;99.90
11188;DHT22;5650;52.700;7.306;2023-04-24T13:35:52;10.80;99.90
11188;DHT22;5650;52.700;7.306;2023-04-24T13:38:19;10.80;99.90
11188;DHT22;5650;52.700;7.306;2023-04-24T13:40:48;10.80;99.90
11188;DHT22;5650;52.700;7.306;2023-04-24T13:43:15;10.70;99.90
11188;DHT22;5650;52.700;7.306;2023-04-24T13:45:42;10.70;99.90
11188;DHT22;5650;52.700;7.306;2023-04-24T13:48:11;10.70;99.90
11188;DHT22;5650;52.700;7.306;2023-04-24T13:50:41;10.70;99.90
11188;DHT22;5650;52.700;7.306;2023-04-24T13:53:08;10.70;99.90
11188;DHT22;5650;52.700;7.306;2023-04-24T13:55:35;10.80;99.90
11188;DHT22;5650;52.700;7.306;2023-04-24T13:58:04;10.90;99.90
11188;DHT22;5650;52.700;7.306;2023-04-24T14:00:32;11.00;99.90
11188;DHT22;5650;52.700;7.306;2023-04-24T14:02:59;11.00;99.90
11188;DHT22;5650;52.700;7.306;2023-04-24T14:05:28;11.10;99.90
11188;DHT22;5650;52.700;7.306;2023-04-24T14:08:04;11.00;99.90
11188;DHT22;5650;52.700;7.306;2023-04-24T14:10:36;11.00;99.90
11188;DHT22;5650;52.700;7.306;2023-04-24T14:13:03;11.00;99.90
11188;DHT22;5650;52.700;7.306;2023-04-24T14:15:31;11.00;99.90
11188;DHT22;5650;52.700;7.306;2023-04-24T14:17:58;10.90;99.90
11188;DHT22;5650;52.700;7.306;2023-04-24T14:20:25;10.80;99.90
11188;DHT22;5650;52.700;7.306;2023-04-24T14:22:54;10.80;99.90
11188;DHT22;5650;52.700;7.306;2023-04-24T14:25:24;10.80;99.90
11188;DHT22;5650;52.700;7.306;2023-04-24T14:27:52;10.80;99.90
11188;DHT22;5650;52.700;7.306;2023-04-24T14:30:19;10.90;99.90
11188;DHT22;5650;52.700;7.306;2023-04-24T14:32:46;10.90;99.90
11188;DHT22;5650;52.700;7.306;2023-04-24T14:35:14;10.90;99.90
11188;DHT22;5650;52.700;7.306;2023-04-24T14:37:41;10.80;99.90
11188;DHT22;5650;52.700;7.306;2023-04-24T14:40:10;10.80;99.90
11188;DHT22;5650;52.700;7.306;2023-04-24T14:42:38;10.70;99.90
11188;DHT22;5650;52.700;7.306;2023-04-24T14:45:06;10.70;99.90
11188;DHT22;5650;52.700;7.306;2023-04-24T14:47:33;10.60;99.90
11188;DHT22;5650;52.700;7.306;2023-04-24T14:50:00;10.60;99.90
11188;DHT22;5650;52.700;7.306;2023-04-24T14:52:28;10.60;99.90
11188;DHT22;5650;52.700;7.306;2023-04-24T14:54:55;10.50;99.90
11188;DHT22;5650;52.700;7.306;2023-04-24T14:57:24;10.50;99.90
11188;DHT22;5650;52.700;7.306;2023-04-24T14:59:52;10.40;99.90
11188;DHT22;5650;52.700;7.306;2023-04-24T15:02:19;10.40;99.90
11188;DHT22;5650;52.700;7.306;2023-04-24T15:04:46;10.40;99.90
11188;DHT22;5650;52.700;7.306;2023-04-24T15:07:13;10.30;99.90
11188;DHT22;5650;52.700;7.306;2023-04-24T15:09:41;10.20;99.90
11188;DHT22;5650;52.700;7.306;2023-04-24T15:12:08;10.20;99.90
11188;DHT22;5650;52.700;7.306;2023-04-24T15:14:39;10.10;99.90
11188;DHT22;5650;52.700;7.306;2023-04-24T15:17:06;10.10;99.90
11188;DHT22;5650;52.700;7.306;2023-04-24T15:19:33;10.10;99.90
11188;DHT22;5650;52.700;7.306;2023-04-24T15:22:03;10.20;99.90
11188;DHT22;5650;52.700;7.306;2023-04-24T15:24:31;10.30;99.90
11188;DHT22;5650;52.700;7.306;2023-04-24T15:26:59;10.40;99.90
11188;DHT22;5650;52.700;7.306;2023-04-24T15:29:27;10.50;99.90
11188;DHT22;5650;52.700;7.306;2023-04-24T15:31:55;10.50;99.90
11188;DHT22;5650;52.700;7.306;2023-04-24T15:34:23;10.50;99.90
11188;DHT22;5650;52.700;7.306;2023-04-24T15:36:50;10.50;99.90
11188;DHT22;5650;52.700;7.306;2023-04-24T15:39:22;10.50;99.90
11188;DHT22;5650;52.700;7.306;2023-04-24T15:41:50;10.50;99.90
11188;DHT22;5650;52.700;7.306;2023-04-24T15:44:18;10.50;99.90
11188;DHT22;5650;52.700;7.306;2023-04-24T15:46:46;10.50;99.90
11188;DHT22;5650;52.700;7.306;2023-04-24T15:49:15;10.50;99.90
11188;DHT22;5650;52.700;7.306;2023-04-24T15:51:42;10.50;99.90
11188;DHT22;5650;52.700;7.306;2023-04-24T15:54:09;10.60;99.90
11188;DHT22;5650;52.700;7.306;2023-04-24T15:56:36;10.60;99.90
11188;DHT22;5650;52.700;7.306;2023-04-24T15:59:03;10.70;99.90
11188;DHT22;5650;52.700;7.306;2023-04-24T16:01:31;10.70;99.90
11188;DHT22;5650;52.700;7.306;2023-04-24T16:03:58;10.70;99.90